Time;durP1;ratioP1;P1;durP2;ratioP2;P2;SDS_P1;SDS_P2;PMS_P1;PMS_P2;Temp;Humidity;BMP_temperature;BMP_pressure;BME280_temperature;BME280_humidity;BME280_pressure;Samples;Min_cycle;Max_cycle;Signal;HPM_P1;HPM_P2
2023/08/28 00:00:10;;;;;;;2.80;2.17;;;16.80;85.30;;;19.51;56.06;100837.50;5034237;28;20534;-68
2023/08/28 00:02:37;;;;;;;2.33;2.13;;;16.80;85.20;;;19.55;55.92;100837.84;5033665;28;20221;-69
2023/08/28 00:05:05;;;;;;;3.83;1.90;;;16.80;85.60;;;19.61;56.11;100839.63;5033863;28;20264;-67
2023/08/28 00:07:33;;;;;;;2.50;2.30;;;16.80;85.70;;;19.66;55.60;100830.91;5034044;28;20225;-68
2023/08/28 00:10:00;;;;;;;3.10;2.43;;;16.90;85.60;;;19.62;56.12;100838.56;5034280;28;20619;-67
2023/08/28 00:12:29;;;;;;;2.20;2.00;;;16.90;85.60;;;19.61;55.61;100839.63;5033655;28;20190;-68
2023/08/28 00:14:56;;;;;;;2.80;2.07;;;16.90;85.30;;;19.59;55.60;100836.34;5033531;28;20216;-68
2023/08/28 00:17:23;;;;;;;2.53;2.10;;;16.90;85.30;;;19.62;56.17;100837.75;5034347;28;20273;-68
2023/08/28 00:19:50;;;;;;;3.90;2.50;;;16.90;85.60;;;19.63;55.93;100834.84;5033712;28;20214;-68
2023/08/28 00:22:18;;;;;;;4.03;2.10;;;16.90;85.30;;;19.65;55.57;100838.09;5033880;28;20194;-68
2023/08/28 00:24:45;;;;;;;2.50;2.30;;;16.90;85.50;;;19.66;55.93;100829.03;5041891;28;20194;-68
2023/08/28 00:27:12;;;;;;;2.53;2.30;;;16.90;85.30;;;19.65;55.71;100823.94;5034398;28;20199;-68
2023/08/28 00:29:40;;;;;;;3.87;2.60;;;16.90;85.30;;;19.62;55.65;100806.50;5032949;28;20194;-67
2023/08/28 00:32:07;;;;;;;3.33;2.70;;;16.90;85.30;;;19.59;55.35;100801.63;5034188;28;20195;-68
2023/08/28 00:34:35;;;;;;;4.20;2.50;;;16.80;85.20;;;19.57;55.45;100807.19;5034390;28;20289;-67
2023/08/28 00:37:03;;;;;;;3.73;2.33;;;16.80;85.50;;;19.53;55.88;100814.06;5033399;28;20623;-69
2023/08/28 00:39:30;;;;;;;2.80;2.60;;;16.80;85.70;;;19.53;55.90;100822.06;5033543;28;20304;-67
2023/08/28 00:41:57;;;;;;;5.17;2.33;;;16.70;85.80;;;19.53;55.96;100813.25;5033852;28;20260;-68
2023/08/28 00:44:24;;;;;;;2.63;2.43;;;16.70;85.90;;;19.51;55.76;100820.69;5033393;28;20199;-67
2023/08/28 00:46:53;;;;;;;3.73;2.67;;;16.70;86.20;;;19.51;56.28;100826.00;5033338;28;20769;-69
2023/08/28 00:49:20;;;;;;;5.10;3.20;;;16.70;86.20;;;19.47;55.91;100825.66;5033785;28;20199;-68
2023/08/28 00:51:47;;;;;;;2.73;2.50;;;16.70;86.30;;;19.45;56.26;100840.28;5033765;28;20199;-67
2023/08/28 00:54:15;;;;;;;2.63;2.43;;;16.60;86.30;;;19.42;56.29;100832.75;5033849;28;20274;-67
2023/08/28 00:56:42;;;;;;;3.00;2.70;;;16.70;86.40;;;19.42;56.19;100835.41;5033240;28;20214;-68
2023/08/28 00:59:09;;;;;;;2.73;2.53;;;16.60;86.70;;;19.44;56.45;100838.66;5033664;28;20233;-69
2023/08/28 01:01:36;;;;;;;4.67;2.60;;;16.60;86.80;;;19.46;56.32;100840.06;5033263;28;20195;-68
2023/08/28 01:04:06;;;;;;;3.63;3.17;;;16.60;86.80;;;19.45;56.32;100842.94;5032472;28;20647;-68
2023/08/28 01:06:47;;;;;;;2.77;2.37;;;16.60;86.90;;;19.44;56.42;100836.81;5033418;28;20210;-68
2023/08/28 01:09:28;;;;;;;2.90;2.60;;;16.70;87.10;;;19.44;56.48;100842.16;5033530;28;20216;-67
2023/08/28 01:12:22;;;;;;;3.33;2.27;;;16.70;86.90;;;19.46;56.90;100824.03;5033199;28;20277;-67
2023/08/28 01:15:01;;;;;;;3.17;2.93;;;16.70;87.30;;;19.51;56.46;100818.00;5033061;28;20194;-68
2023/08/28 01:17:30;;;;;;;3.50;3.20;;;16.70;87.00;;;19.51;56.25;100813.47;5033583;28;20212;-70
2023/08/28 01:20:01;;;;;;;4.97;2.97;;;16.70;87.00;;;19.53;56.50;100803.38;5033556;28;20211;-68
2023/08/28 01:22:35;;;;;;;4.50;2.53;;;16.70;86.90;;;19.55;56.61;100795.13;5033512;28;20264;-67
2023/08/28 01:25:10;;;;;;;5.50;2.83;;;16.70;87.30;;;19.60;56.41;100800.59;5036782;28;20247;-68
2023/08/28 01:27:39;;;;;;;4.57;2.93;;;16.80;87.60;;;19.67;56.41;100814.63;5036914;28;20270;-67
2023/08/28 01:30:12;;;;;;;3.40;2.53;;;16.80;87.50;;;19.71;56.44;100817.66;5036841;28;20187;-67
2023/08/28 01:32:40;;;;;;;5.07;2.80;;;16.80;87.50;;;19.74;56.26;100828.69;5036720;28;20229;-67
2023/08/28 01:35:12;;;;;;;3.63;2.40;;;16.80;87.30;;;19.72;56.32;100833.47;5056701;28;20301;-67
2023/08/28 01:37:57;;;;;;;4.43;2.73;;;16.90;87.20;;;19.69;56.37;100831.25;5056807;28;20265;-67
2023/08/28 01:40:36;;;;;;;3.03;2.73;;;16.80;87.20;;;19.69;56.15;100819.75;5056868;28;20223;-67
2023/08/28 01:43:10;;;;;;;2.40;2.20;;;16.80;87.30;;;19.67;56.18;100819.97;5043507;28;20216;-68
2023/08/28 01:45:38;;;;;;;3.83;2.70;;;16.90;87.30;;;19.67;56.20;100830.66;5036392;28;20217;-67
2023/08/28 01:48:06;;;;;;;2.80;2.60;;;16.80;87.00;;;19.64;56.17;100833.78;5035484;28;20290;-67
2023/08/28 01:50:34;;;;;;;3.27;2.77;;;16.80;87.10;;;19.61;56.54;100842.28;5036571;28;20183;-67
2023/08/28 01:53:01;;;;;;;3.07;2.83;;;16.80;87.00;;;19.58;56.61;100837.41;5036577;28;20194;-67
2023/08/28 01:56:23;;;;;;;3.30;2.67;;;16.80;87.10;;;19.44;56.94;100857.34;5036101;28;20210;-67
2023/08/28 01:58:54;;;;;;;3.33;2.70;;;16.70;87.40;;;19.47;56.93;100852.34;5027868;28;20324;-67
2023/08/28 02:01:23;;;;;;;3.00;2.80;;;16.70;87.30;;;19.47;56.44;100848.84;5036220;28;20253;-67
2023/08/28 02:03:51;;;;;;;5.27;2.70;;;16.70;87.50;;;19.49;56.50;100854.81;5036338;28;20551;-67
2023/08/28 02:06:18;;;;;;;3.60;2.90;;;16.70;87.80;;;19.49;57.07;100844.13;5035830;28;20210;-68
2023/08/28 02:08:46;;;;;;;4.10;2.57;;;16.60;87.70;;;19.50;56.72;100851.06;5036338;28;20271;-67
2023/08/28 02:11:15;;;;;;;3.97;2.70;;;16.60;87.90;;;19.52;57.03;100848.97;5036446;28;20275;-67
2023/08/28 02:13:42;;;;;;;4.70;3.37;;;16.70;88.10;;;19.54;57.21;100846.91;5035934;28;20199;-68
2023/08/28 02:16:10;;;;;;;4.83;3.00;;;16.70;88.40;;;19.58;57.49;100848.91;5035884;28;20702;-68
2023/08/28 02:18:37;;;;;;;3.37;3.07;;;16.70;88.40;;;19.61;56.94;100847.63;5036307;28;20195;-68
2023/08/28 02:21:04;;;;;;;3.07;2.33;;;16.70;87.90;;;19.61;56.97;100857.50;5036089;28;20219;-67
2023/08/28 02:23:32;;;;;;;5.87;3.20;;;16.80;87.90;;;19.63;57.16;100860.75;5038593;28;20197;-67
2023/08/28 02:25:59;;;;;;;4.50;3.67;;;16.80;87.90;;;19.63;56.78;100872.25;5047528;28;20222;-67
2023/08/28 02:28:27;;;;;;;6.30;3.90;;;16.80;87.70;;;19.55;56.65;100869.91;5036368;28;20197;-68
2023/08/28 02:30:58;;;;;;;3.57;3.23;;;16.80;87.50;;;19.51;57.01;100879.41;5036302;28;20685;-68
2023/08/28 02:33:27;;;;;;;3.23;3.00;;;16.80;87.50;;;19.45;57.29;100880.31;5034417;28;20603;-67
2023/08/28 02:35:54;;;;;;;4.27;2.60;;;16.80;87.60;;;19.43;57.30;100882.41;5053899;28;20328;-68
2023/08/28 02:38:21;;;;;;;4.37;3.17;;;16.70;87.80;;;19.40;57.50;100878.34;5055425;28;20536;-67
2023/08/28 02:40:48;;;;;;;4.20;3.73;;;16.70;87.60;;;19.39;57.19;100873.25;5055513;28;20209;-68
2023/08/28 02:43:15;;;;;;;2.87;2.67;;;16.60;87.50;;;19.38;57.08;100879.59;5045157;28;20209;-67
2023/08/28 02:45:43;;;;;;;4.23;3.33;;;16.60;87.90;;;19.39;57.63;100875.91;5020406;28;20528;-67
2023/08/28 02:48:10;;;;;;;4.00;3.60;;;16.60;88.30;;;19.37;57.64;100883.34;5015986;28;20301;-67
2023/08/28 02:50:38;;;;;;;4.87;4.10;;;16.60;88.20;;;19.34;57.46;100884.56;5015644;28;20195;-67
2023/08/28 02:53:05;;;;;;;3.77;3.23;;;16.60;87.90;;;19.32;57.73;100885.84;5023888;28;20225;-67
2023/08/28 02:55:40;;;;;;;3.27;2.93;;;16.60;88.20;;;19.32;57.44;100881.31;5035247;28;20210;-67
2023/08/28 02:58:09;;;;;;;3.57;3.27;;;16.60;88.30;;;19.35;57.18;100869.38;5035766;28;20213;-67
2023/08/28 03:00:37;;;;;;;5.37;3.47;;;16.60;88.30;;;19.35;57.17;100870.16;5041807;28;20204;-67
2023/08/28 03:03:06;;;;;;;6.03;4.00;;;16.60;88.40;;;19.34;57.51;100868.56;5046945;28;20221;-68
2023/08/28 03:05:34;;;;;;;4.67;3.50;;;16.50;88.30;;;19.30;57.01;100863.91;5034836;28;20218;-68
2023/08/28 03:08:01;;;;;;;4.27;3.47;;;16.50;88.20;;;19.27;57.55;100861.69;5035087;28;20582;-67
2023/08/28 03:10:30;;;;;;;4.43;3.90;;;16.50;88.50;;;19.25;57.74;100858.44;5034919;28;20197;-68
2023/08/28 03:12:57;;;;;;;4.30;3.90;;;16.50;88.50;;;19.24;57.54;100857.63;5034757;28;20198;-67
2023/08/28 03:15:25;;;;;;;5.57;4.13;;;16.40;88.50;;;19.24;57.92;100867.47;5034610;28;20273;-68
2023/08/28 03:17:52;;;;;;;4.33;3.80;;;16.40;88.70;;;19.24;57.50;100868.28;5034856;28;20198;-67
2023/08/28 03:20:20;;;;;;;4.20;3.80;;;16.40;88.70;;;19.25;57.40;100874.44;5033310;28;20226;-68
2023/08/28 03:22:47;;;;;;;6.90;4.63;;;16.40;88.80;;;19.22;58.09;100890.91;5034663;28;20273;-67
2023/08/28 03:25:15;;;;;;;4.53;4.13;;;16.40;88.90;;;19.16;58.52;100902.50;5040136;28;20266;-66
2023/08/28 03:27:42;;;;;;;6.03;4.57;;;16.40;89.20;;;19.06;58.26;100915.56;5039765;28;20226;-70
2023/08/28 03:30:10;;;;;;;4.63;4.23;;;16.40;89.20;;;19.05;58.71;100924.59;5035328;28;20191;-68
2023/08/28 03:32:37;;;;;;;5.00;4.40;;;16.40;89.40;;;19.08;58.21;100924.16;5033782;28;20284;-68
2023/08/28 03:35:05;;;;;;;5.43;4.07;;;16.40;89.30;;;19.16;58.48;100921.19;5054025;28;20248;-66
2023/08/28 03:37:33;;;;;;;5.30;4.50;;;16.40;89.40;;;19.20;58.22;100914.34;5054074;28;20224;-69
2023/08/28 03:40:00;;;;;;;4.13;3.10;;;16.40;89.60;;;19.23;58.21;100916.56;5052819;28;20288;-66
2023/08/28 03:42:27;;;;;;;5.33;3.77;;;16.40;89.60;;;19.27;58.02;100917.75;5052758;28;20258;-67
2023/08/28 03:44:54;;;;;;;4.70;4.30;;;16.40;89.30;;;19.29;57.74;100929.00;5025269;28;20334;-67
2023/08/28 03:47:21;;;;;;;5.20;4.53;;;16.40;89.00;;;19.29;57.98;100934.34;5013131;28;20202;-67
2023/08/28 03:49:48;;;;;;;6.30;3.70;;;16.50;89.10;;;19.27;58.21;100936.44;5033486;28;20194;-67
2023/08/28 03:52:15;;;;;;;7.30;4.50;;;16.50;89.30;;;19.28;58.40;100935.41;5034112;28;20278;-66
2023/08/28 03:54:46;;;;;;;5.00;4.13;;;16.50;89.10;;;19.30;57.83;100946.66;5031756;28;20671;-67
2023/08/28 03:57:13;;;;;;;5.57;3.73;;;16.50;88.80;;;19.30;58.09;100946.66;5044161;28;20194;-67
2023/08/28 03:59:40;;;;;;;4.10;3.70;;;16.60;89.00;;;19.34;58.20;100947.81;5054016;28;20226;-66
2023/08/28 04:02:08;;;;;;;4.23;3.87;;;16.60;89.10;;;19.31;58.36;100954.44;5053849;28;20320;-66
2023/08/28 04:04:35;;;;;;;6.20;4.87;;;16.60;89.00;;;19.39;57.92;100948.00;5035192;28;20217;-67
2023/08/28 04:07:02;;;;;;;4.23;3.83;;;16.60;88.70;;;19.42;58.03;100958.22;5034059;28;20229;-67
2023/08/28 04:09:29;;;;;;;9.60;4.67;;;16.70;88.70;;;19.45;57.25;100955.09;5033790;28;20240;-67
2023/08/28 04:11:58;;;;;;;6.03;4.60;;;16.70;88.20;;;19.45;57.33;100955.09;5033815;28;20185;-67
2023/08/28 04:14:25;;;;;;;5.20;3.60;;;16.70;88.90;;;19.46;57.37;100956.72;5033821;28;20198;-66
2023/08/28 04:16:53;;;;;;;5.70;4.13;;;16.70;88.10;;;19.46;57.62;100957.53;5033239;28;20214;-67
2023/08/28 04:19:20;;;;;;;5.17;4.30;;;16.70;88.00;;;19.48;57.42;100959.97;5033999;28;20548;-66
2023/08/28 04:21:47;;;;;;;5.50;4.87;;;16.70;88.70;;;19.48;57.22;100954.63;5033504;28;20738;-68
2023/08/28 04:24:14;;;;;;;7.03;4.73;;;16.70;88.00;;;19.44;57.04;100943.63;5042826;28;20197;-67
2023/08/28 04:26:41;;;;;;;4.80;4.40;;;16.70;87.60;;;19.40;56.79;100936.25;5040252;28;20276;-68
2023/08/28 04:29:10;;;;;;;6.23;5.00;;;16.60;87.60;;;19.36;56.99;100924.41;5033596;28;20246;-67
2023/08/28 04:31:37;;;;;;;6.00;4.83;;;16.60;87.70;;;19.32;56.84;100920.53;5033204;28;20190;-67
2023/08/28 04:34:04;;;;;;;6.97;4.97;;;16.50;87.80;;;19.27;57.31;100915.06;5033218;28;20264;-67
2023/08/28 04:36:31;;;;;;;5.67;4.93;;;16.50;88.00;;;19.24;57.02;100910.19;5031268;28;20253;-67
2023/08/28 04:38:58;;;;;;;6.83;5.30;;;16.50;88.30;;;19.24;57.36;100911.00;5033507;28;20237;-67
2023/08/28 04:41:25;;;;;;;5.80;5.20;;;16.40;88.50;;;19.23;57.42;100913.91;5033429;28;20234;-67
2023/08/28 04:43:52;;;;;;;5.33;4.83;;;16.40;88.50;;;19.18;57.48;100911.91;5033993;28;20713;-67
2023/08/28 04:46:21;;;;;;;5.90;5.10;;;16.40;88.50;;;19.16;57.45;100913.19;5013095;28;20302;-69
2023/08/28 04:48:48;;;;;;;6.00;5.23;;;16.40;88.70;;;19.16;57.50;100921.19;5024437;28;20271;-67
2023/08/28 04:51:15;;;;;;;6.03;5.43;;;16.30;88.90;;;19.16;57.46;100908.63;5033065;28;20208;-67
2023/08/28 04:53:43;;;;;;;6.13;5.40;;;16.30;89.10;;;19.16;57.85;100907.84;5033148;28;20214;-67
2023/08/28 04:56:10;;;;;;;6.17;5.57;;;16.30;89.30;;;19.18;57.82;100903.09;5033063;28;20207;-67
2023/08/28 04:58:37;;;;;;;5.63;4.93;;;16.30;89.50;;;19.20;57.94;100909.84;5035079;28;20244;-67
2023/08/28 05:01:04;;;;;;;5.70;5.20;;;16.30;90.00;;;19.25;58.13;100901.97;5037008;28;20297;-68
2023/08/28 05:03:32;;;;;;;5.93;5.03;;;16.30;90.00;;;19.28;57.70;100908.69;5037204;28;20194;-68
2023/08/28 05:06:00;;;;;;;6.00;5.33;;;16.30;89.70;;;19.28;57.68;100906.03;5036766;28;20731;-67
2023/08/28 05:08:27;;;;;;;6.43;4.77;;;16.40;89.60;;;19.27;57.90;100904.41;5036982;28;20205;-67
2023/08/28 05:10:54;;;;;;;5.63;5.13;;;16.30;89.30;;;19.24;57.94;100905.66;5037124;28;20273;-69
2023/08/28 05:13:21;;;;;;;6.00;5.50;;;16.40;89.40;;;19.25;58.14;100906.47;5036083;28;20277;-69
2023/08/28 05:15:48;;;;;;;5.80;5.23;;;16.30;89.60;;;19.28;57.95;100906.03;5036256;28;20305;-68
2023/08/28 05:18:16;;;;;;;6.13;5.20;;;16.40;89.80;;;19.31;57.72;100895.69;5036969;28;20199;-68
2023/08/28 05:20:44;;;;;;;8.27;5.33;;;16.40;89.60;;;19.37;57.98;100894.00;5036671;28;20317;-67
2023/08/28 05:23:11;;;;;;;5.67;5.07;;;16.40;89.80;;;19.38;57.50;100895.63;5037211;28;20190;-68
2023/08/28 05:25:38;;;;;;;5.23;4.80;;;16.40;89.40;;;19.38;57.47;100887.63;5056697;28;20226;-67
2023/08/28 05:28:05;;;;;;;5.70;5.10;;;16.50;89.20;;;19.35;57.43;100890.72;5056281;28;20546;-67
2023/08/28 05:30:32;;;;;;;4.93;4.53;;;16.50;89.30;;;19.35;57.84;100894.19;5055839;28;20285;-68
2023/08/28 05:32:59;;;;;;;6.93;5.43;;;16.50;89.30;;;19.35;57.69;100885.41;5039855;28;20233;-68
2023/08/28 05:35:26;;;;;;;7.10;5.30;;;16.50;89.10;;;19.33;57.59;100884.78;5034917;28;20906;-67
2023/08/28 05:37:55;;;;;;;7.90;5.40;;;16.40;88.90;;;19.30;57.56;100885.25;5036196;28;20273;-69
2023/08/28 05:40:22;;;;;;;5.90;5.30;;;16.50;89.00;;;19.29;57.53;100880.94;5036734;28;20644;-67
2023/08/28 05:42:49;;;;;;;6.00;5.50;;;16.40;89.10;;;19.31;57.57;100878.88;5036508;28;20218;-68
2023/08/28 05:45:16;;;;;;;7.00;6.20;;;16.40;89.20;;;19.33;57.37;100876.78;5027284;28;20260;-67
2023/08/28 05:47:43;;;;;;;6.27;4.53;;;16.40;89.40;;;19.33;57.76;100887.44;5035441;28;20201;-68
2023/08/28 05:50:11;;;;;;;9.77;5.63;;;16.40;89.30;;;19.36;57.95;100895.88;5036190;28;20268;-67
2023/08/28 05:52:38;;;;;;;7.53;5.93;;;16.40;89.40;;;19.38;57.70;100900.97;5035866;28;20195;-67
2023/08/28 05:55:07;;;;;;;6.73;6.03;;;16.40;89.40;;;19.39;57.57;100907.94;5035448;28;20207;-67
2023/08/28 05:57:34;;;;;;;6.30;5.70;;;16.50;89.50;;;19.41;57.90;100903.19;5035975;28;20191;-68
2023/08/28 06:00:03;;;;;;;6.30;5.43;;;16.50;89.30;;;19.43;57.40;100895.75;5035700;28;20198;-68
2023/08/28 06:02:30;;;;;;;6.97;5.73;;;16.50;89.30;;;19.47;57.68;100904.94;5035855;28;20557;-68
2023/08/28 06:04:57;;;;;;;6.60;6.00;;;16.50;89.50;;;19.50;57.77;100907.16;5034289;28;20219;-68
2023/08/28 06:07:24;;;;;;;7.03;6.33;;;16.60;89.40;;;19.50;57.30;100915.16;5035337;28;20257;-68
2023/08/28 06:09:51;;;;;;;6.97;6.30;;;16.60;89.30;;;19.49;57.68;100897.53;5034872;28;20198;-67
2023/08/28 06:12:20;;;;;;;6.23;5.63;;;16.60;89.30;;;19.50;57.41;100905.31;5035834;28;20290;-67
2023/08/28 06:14:49;;;;;;;6.30;5.67;;;16.60;89.40;;;19.54;57.37;100911.81;5035083;28;20190;-72
2023/08/28 06:17:17;;;;;;;7.03;5.40;;;16.60;89.40;;;19.57;57.83;100916.69;5035410;28;20187;-68
2023/08/28 06:19:44;;;;;;;6.47;5.87;;;16.60;89.40;;;19.59;57.75;100924.47;5036343;28;20205;-70
2023/08/28 06:22:11;;;;;;;6.60;6.00;;;16.70;89.40;;;19.59;57.89;100925.28;5035479;28;20309;-68
2023/08/28 06:24:38;;;;;;;7.00;6.30;;;16.70;89.30;;;19.61;57.77;100927.75;5040737;28;20191;-69
2023/08/28 06:27:05;;;;;;;6.73;6.03;;;16.70;89.30;;;19.62;57.56;100929.38;5035444;28;20210;-67
2023/08/28 06:29:34;;;;;;;6.40;5.80;;;16.70;89.30;;;19.68;57.72;100939.16;5035165;28;20326;-68
2023/08/28 06:32:01;;;;;;;8.23;6.23;;;16.80;90.10;;;19.73;57.29;100941.13;5035339;28;20211;-67
2023/08/28 06:34:28;;;;;;;6.73;6.13;;;16.80;89.50;;;19.79;57.53;100935.69;5034699;28;20226;-67
2023/08/28 06:36:55;;;;;;;7.37;6.67;;;16.80;89.40;;;19.85;57.60;100952.66;5035210;28;20257;-68
2023/08/28 06:39:22;;;;;;;8.00;6.17;;;16.90;89.40;;;19.88;57.42;100950.31;5034334;28;20293;-68
2023/08/28 06:41:49;;;;;;;8.07;6.27;;;16.90;89.20;;;19.92;57.55;100945.34;5035304;28;20686;-68
2023/08/28 06:44:16;;;;;;;6.80;5.50;;;17.00;89.30;;;19.98;57.33;100942.56;5030050;28;20696;-68
2023/08/28 06:46:45;;;;;;;7.23;5.47;;;17.00;89.20;;;20.07;56.90;100949.19;5030832;28;20222;-68
2023/08/28 06:49:13;;;;;;;6.63;6.03;;;17.10;89.30;;;20.18;57.24;100945.69;5035030;28;20202;-67
2023/08/28 06:51:40;;;;;;;6.83;5.93;;;17.10;89.20;;;20.29;56.65;100952.13;5034838;28;20787;-67
2023/08/28 06:54:07;;;;;;;5.97;5.37;;;17.20;89.20;;;20.39;56.99;100951.53;5034781;28;20277;-67
2023/08/28 06:56:34;;;;;;;6.73;6.07;;;17.30;89.10;;;20.44;56.79;100954.34;5034919;28;20289;-67
2023/08/28 06:59:01;;;;;;;5.37;4.93;;;17.40;88.70;;;20.49;56.25;100957.13;5034946;28;20260;-67
2023/08/28 07:01:28;;;;;;;5.37;4.87;;;17.40;88.40;;;20.56;56.60;100968.50;5034650;28;20233;-67
2023/08/28 07:03:57;;;;;;;5.70;5.27;;;17.50;88.40;;;20.65;56.05;100961.75;5034590;28;20655;-67
2023/08/28 07:06:24;;;;;;;6.00;4.90;;;17.60;88.50;;;20.75;55.96;100961.97;5034360;28;20210;-67
2023/08/28 07:08:51;;;;;;;5.87;5.37;;;17.70;88.40;;;20.85;55.80;100959.50;5034488;28;20205;-68
2023/08/28 07:11:18;;;;;;;5.50;5.00;;;17.80;88.20;;;20.92;55.38;100962.84;5034558;28;20202;-69
2023/08/28 07:13:45;;;;;;;11.67;4.77;;;17.80;87.80;;;21.00;55.49;100965.16;5034300;28;20202;-67
2023/08/28 07:16:12;;;;;;;7.00;5.03;;;17.90;87.70;;;21.09;55.32;100970.97;5033804;28;20671;-68
2023/08/28 07:18:40;;;;;;;5.27;4.77;;;18.00;87.50;;;21.19;55.22;100973.88;5034371;28;20229;-68
2023/08/28 07:21:09;;;;;;;4.43;4.03;;;18.10;87.50;;;21.29;55.41;100980.25;5033333;28;20247;-68
2023/08/28 07:23:36;;;;;;;5.20;4.43;;;18.20;87.30;;;21.57;55.01;100974.88;5034212;28;20206;-67
2023/08/28 07:26:04;;;;;;;6.43;4.07;;;18.30;87.20;;;22.10;54.29;100984.38;5033855;28;20288;-67
2023/08/28 07:28:31;;;;;;;5.50;3.50;;;18.50;87.80;;;22.71;53.70;100984.22;5033745;28;20205;-67
2023/08/28 07:31:01;;;;;;;5.60;3.70;;;18.80;87.80;;;23.41;52.66;100986.19;5034356;28;20230;-68
2023/08/28 07:33:28;;;;;;;5.17;4.50;;;19.20;86.70;;;24.03;50.16;100997.25;5033607;28;20202;-66
2023/08/28 07:35:55;;;;;;;3.90;3.47;;;19.60;84.30;;;24.55;48.73;100995.50;5033977;28;20316;-66
2023/08/28 07:38:23;;;;;;;4.03;3.70;;;20.20;82.70;;;25.30;47.73;100991.53;5034646;28;20199;-67
2023/08/28 07:40:51;;;;;;;4.43;3.07;;;20.70;81.30;;;25.99;45.66;100991.94;5034121;28;20649;-67
2023/08/28 07:43:18;;;;;;;3.97;3.23;;;21.30;80.00;;;26.54;45.30;101002.72;5051353;28;20300;-69
2023/08/28 07:45:45;;;;;;;2.83;2.53;;;21.80;79.00;;;27.20;43.53;101002.50;5033389;28;20543;-68
2023/08/28 07:48:12;;;;;;;6.13;3.43;;;22.30;77.30;;;27.40;40.88;100999.72;5033178;28;20202;-67
2023/08/28 07:50:40;;;;;;;3.03;2.83;;;22.60;71.90;;;27.84;40.59;101000.50;5033482;28;20190;-67
2023/08/28 07:53:07;;;;;;;3.30;2.80;;;23.20;71.80;;;28.46;40.21;100997.00;5033504;28;20612;-68
2023/08/28 07:55:37;;;;;;;3.23;2.50;;;23.60;71.50;;;29.26;39.27;101000.69;5033141;28;20213;-67
2023/08/28 07:58:04;;;;;;;4.27;2.90;;;24.10;70.10;;;30.07;37.78;101004.94;5033872;28;20607;-68
2023/08/28 08:00:34;;;;;;;2.60;2.40;;;24.70;68.90;;;30.62;36.49;101014.00;5033746;28;20742;-67
2023/08/28 08:03:04;;;;;;;2.97;2.73;;;25.20;66.40;;;30.45;35.33;101022.72;5033680;28;20290;-68
2023/08/28 08:05:32;;;;;;;2.93;2.73;;;25.50;64.20;;;30.67;35.94;101014.72;5032437;28;20309;-68
2023/08/28 08:07:59;;;;;;;4.20;2.80;;;25.60;63.70;;;30.89;33.16;101018.66;5033316;28;20186;-68
2023/08/28 08:10:26;;;;;;;3.00;2.57;;;25.60;59.90;;;31.19;33.43;101020.78;5033640;28;20233;-68
2023/08/28 08:12:55;;;;;;;2.90;2.60;;;26.10;61.50;;;31.80;33.30;101023.75;5033719;28;20277;-67
2023/08/28 08:15:22;;;;;;;3.37;2.50;;;26.40;60.00;;;32.53;32.59;101015.13;5032834;28;20722;-68
2023/08/28 08:17:49;;;;;;;2.43;2.23;;;26.80;59.80;;;33.27;31.29;101026.94;5040838;28;20551;-66
2023/08/28 08:20:16;;;;;;;3.00;2.70;;;27.20;59.10;;;33.83;30.73;101017.00;5030732;28;20190;-66
2023/08/28 08:22:43;;;;;;;2.17;2.03;;;27.60;58.20;;;34.38;29.71;101012.41;5030523;28;20258;-66
2023/08/28 08:25:10;;;;;;;2.67;2.47;;;27.90;56.50;;;34.85;28.84;101004.19;5031493;28;20214;-68
2023/08/28 08:27:44;;;;;;;3.83;2.27;;;28.30;55.40;;;35.30;27.51;101010.69;5013501;28;20187;-67
2023/08/28 08:30:16;;;;;;;4.23;2.27;;;28.70;53.60;;;35.52;27.89;101006.84;5031250;28;20350;-66
2023/08/28 08:32:43;;;;;;;3.90;1.77;;;29.00;53.50;;;35.92;27.50;101016.94;5031772;28;20658;-66
2023/08/28 08:35:12;;;;;;;2.60;2.15;;;29.40;52.10;;;36.26;27.09;101006.75;5030878;28;20242;-69
2023/08/28 08:37:41;;;;;;;2.60;2.33;;;29.70;51.30;;;36.71;26.60;100998.47;5032435;28;20194;-67
2023/08/28 08:40:16;;;;;;;2.47;2.28;;;30.00;51.00;;;37.14;25.47;101007.75;5030043;28;20205;-67
2023/08/28 08:42:44;;;;;;;4.63;2.38;;;30.20;49.40;;;37.39;25.56;101002.22;5031565;28;20209;-67
2023/08/28 08:45:12;;;;;;;3.03;1.70;;;30.60;48.90;;;37.66;25.29;100995.91;5031628;28;20288;-68
2023/08/28 08:47:45;;;;;;;3.13;1.85;;;30.80;48.10;;;37.88;24.73;100993.44;5028782;28;20717;-67
2023/08/28 08:50:18;;;;;;;1.55;1.45;;;31.10;46.30;;;38.03;24.09;100999.34;5018507;28;20214;-68
2023/08/28 08:52:50;;;;;;;3.78;1.42;;;31.30;45.20;;;37.01;24.79;101008.94;5032945;28;20229;-69
2023/08/28 08:55:30;;;;;;;3.90;2.58;;;31.30;44.30;;;35.90;25.33;101008.25;5035272;22;20245;-68
2023/08/28 08:58:04;;;;;;;1.25;1.13;;;30.90;44.20;;;35.50;26.38;101004.41;5007812;28;20679;-67
2023/08/28 09:00:43;;;;;;;2.87;1.57;;;30.50;44.40;;;34.65;26.98;101012.00;5009061;28;20205;-67
2023/08/28 09:03:13;;;;;;;2.47;1.50;;;30.10;44.50;;;33.99;27.34;101008.00;5008802;28;20246;-68
2023/08/28 09:05:41;;;;;;;2.90;1.30;;;29.60;45.60;;;34.26;27.69;101009.53;5010015;28;20297;-68
2023/08/28 09:08:12;;;;;;;1.17;1.07;;;29.30;46.50;;;35.00;27.16;101009.06;5013304;28;20206;-67
2023/08/28 09:10:39;;;;;;;1.77;1.50;;;29.30;48.00;;;35.85;26.03;101016.69;5012169;28;20295;-66
2023/08/28 09:13:06;;;;;;;1.50;1.37;;;29.50;47.80;;;36.12;25.48;101020.00;5011193;28;20322;-66
2023/08/28 09:15:35;;;;;;;2.30;1.73;;;29.70;46.40;;;35.74;25.15;101018.25;5003212;28;20239;-66
2023/08/28 09:18:04;;;;;;;3.30;1.17;;;29.80;45.90;;;36.10;25.22;101016.78;5009144;28;20195;-67
2023/08/28 09:20:31;;;;;;;1.50;1.40;;;29.90;46.30;;;36.99;24.80;101022.19;5012024;28;20261;-67
2023/08/28 09:22:58;;;;;;;3.10;1.73;;;30.10;45.70;;;37.03;23.36;101020.38;5032346;28;20289;-67
2023/08/28 09:25:26;;;;;;;1.83;1.17;;;30.30;43.30;;;36.21;24.49;101028.94;5025702;28;20215;-67
2023/08/28 09:27:56;;;;;;;1.50;1.40;;;30.30;42.70;;;35.58;25.66;101017.28;5025096;28;20217;-67
2023/08/28 09:30:31;;;;;;;1.75;1.20;;;30.20;43.30;;;36.03;24.95;101020.09;5012774;28;20222;-68
2023/08/28 09:33:07;;;;;;;1.80;1.30;;;30.10;43.10;;;36.94;23.45;101022.44;5014903;28;20332;-67
2023/08/28 09:35:38;;;;;;;1.98;1.20;;;30.20;43.50;;;37.57;22.88;101020.03;5016761;28;20233;-67
2023/08/28 09:38:07;;;;;;;1.60;1.08;;;30.50;42.50;;;37.68;22.54;101026.63;5026080;28;20261;-68
2023/08/28 09:40:36;;;;;;;1.45;1.10;;;30.80;41.60;;;37.96;22.45;101016.44;5015221;28;20222;-67
2023/08/28 09:43:13;;;;;;;2.03;1.20;;;31.00;41.60;;;38.18;21.89;101017.81;5031738;28;20310;-67
2023/08/28 09:45:42;;;;;;;2.42;1.92;;;31.30;41.10;;;38.25;21.98;101020.75;5031737;28;20236;-67
2023/08/28 09:48:12;;;;;;;1.48;1.30;;;31.50;40.40;;;38.31;21.46;101019.34;5019085;28;20210;-67
2023/08/28 09:50:41;;;;;;;3.17;1.60;;;31.60;39.80;;;38.85;20.78;101025.03;5030413;28;20198;-68
2023/08/28 09:53:11;;;;;;;2.00;1.83;;;31.70;38.60;;;39.44;20.49;101019.31;5035992;28;20210;-69
2023/08/28 09:55:39;;;;;;;1.55;1.45;;;32.00;38.30;;;40.08;19.62;101018.66;5035298;28;20756;-69
2023/08/28 09:58:11;;;;;;;6.60;1.88;;;32.30;38.40;;;40.77;19.92;101014.72;5035881;28;20199;-68
2023/08/28 10:00:40;;;;;;;2.00;1.75;;;32.60;37.90;;;40.89;19.33;101026.38;5034428;28;20186;-68
2023/08/28 10:03:08;;;;;;;2.72;1.77;;;33.00;37.10;;;40.90;18.90;101016.91;5035744;28;20207;-68
2023/08/28 10:05:40;;;;;;;1.73;1.50;;;33.20;36.30;;;40.81;18.50;101021.88;5033373;28;20222;-67
2023/08/28 10:08:09;;;;;;;1.42;1.30;;;33.40;35.50;;;40.27;19.29;101018.59;4994708;28;20265;-68
2023/08/28 10:10:39;;;;;;;1.52;1.40;;;33.40;35.10;;;39.26;19.83;101021.69;4996042;28;20258;-68
2023/08/28 10:13:13;;;;;;;2.00;1.85;;;33.30;34.10;;;38.10;20.76;101022.34;4997126;28;20220;-68
2023/08/28 10:15:52;;;;;;;3.70;2.08;;;33.00;34.10;;;37.09;21.91;101024.47;4996128;28;20212;-68
2023/08/28 10:18:29;;;;;;;2.33;1.60;;;32.50;34.90;;;36.28;22.94;101029.19;4995831;28;20214;-68